createdAt,value
2018-12-30T00:31:48.244Z,3.90
2018-12-30T00:34:24.366Z,3.85
2018-12-30T00:36:59.816Z,2.95
2018-12-30T00:39:35.493Z,2.70
2018-12-30T00:42:09.703Z,3.27
2018-12-30T00:44:42.722Z,3.62
2018-12-30T00:47:17.521Z,3.22
2018-12-30T00:49:50.909Z,5.28
2018-12-30T00:52:24.311Z,3.42
2018-12-30T00:55:00.309Z,3.25
2018-12-30T00:57:34.294Z,2.90
2018-12-30T01:00:08.782Z,4.35
2018-12-30T01:02:44.145Z,4.25
2018-12-30T01:05:17.912Z,3.37
2018-12-30T01:07:50.534Z,3.35
2018-12-30T01:10:23.496Z,3.62
2018-12-30T01:12:56.117Z,3.02
2018-12-30T01:15:30.976Z,3.27
2018-12-30T01:18:03.780Z,4.35
2018-12-30T01:20:38.973Z,3.62
2018-12-30T01:23:12.379Z,5.87
2018-12-30T01:25:45.412Z,3.30
2018-12-30T01:28:19.148Z,3.72
2018-12-30T01:30:52.614Z,3.45
2018-12-30T01:33:25.276Z,2.90
2018-12-30T01:35:58.356Z,4.90
2018-12-30T01:38:32.283Z,3.40
2018-12-30T01:41:05.958Z,3.00
2018-12-30T01:43:39.839Z,2.80
2018-12-30T01:46:13.759Z,2.50
2018-12-30T01:48:47.233Z,2.55
2018-12-30T01:51:20.714Z,3.20
2018-12-30T01:53:53.682Z,3.45
2018-12-30T01:56:27.130Z,3.00
2018-12-30T01:59:00.476Z,2.60
2018-12-30T02:01:34.087Z,3.92
2018-12-30T02:04:06.621Z,2.22
2018-12-30T02:06:40.160Z,2.60
2018-12-30T02:09:13.159Z,3.30
2018-12-30T02:11:46.151Z,3.45
2018-12-30T02:14:19.531Z,3.20
2018-12-30T02:16:54.145Z,3.60
2018-12-30T02:19:27.588Z,3.45
2018-12-30T02:22:02.542Z,2.70
2018-12-30T02:24:35.940Z,3.30
2018-12-30T02:27:11.330Z,3.72
2018-12-30T02:29:45.070Z,2.37
2018-12-30T02:32:17.825Z,2.75
2018-12-30T02:34:51.241Z,2.58
2018-12-30T02:37:24.780Z,2.00
2018-12-30T02:39:58.143Z,2.35
2018-12-30T02:42:31.204Z,2.35
2018-12-30T02:45:04.020Z,2.52
2018-12-30T02:47:38.015Z,2.37
2018-12-30T02:50:11.789Z,2.35
2018-12-30T02:52:45.509Z,2.55
2018-12-30T02:55:19.574Z,2.75
2018-12-30T02:57:52.951Z,2.98
2018-12-30T03:00:25.928Z,2.37
2018-12-30T03:02:58.947Z,2.37
2018-12-30T03:05:32.838Z,2.58
2018-12-30T03:08:05.845Z,2.30
2018-12-30T03:10:39.191Z,2.12
2018-12-30T03:13:12.407Z,2.40
2018-12-30T03:15:45.401Z,3.40
2018-12-30T03:18:18.914Z,2.90
2018-12-30T03:20:51.636Z,2.92
2018-12-30T03:23:24.900Z,2.85
2018-12-30T03:25:58.775Z,2.02
2018-12-30T03:28:32.171Z,2.75
2018-12-30T03:31:05.665Z,2.98
2018-12-30T03:33:40.483Z,3.25
2018-12-30T03:36:13.912Z,2.50
2018-12-30T03:38:47.304Z,2.50
2018-12-30T03:41:22.914Z,2.60
2018-12-30T03:44:05.024Z,2.70
2018-12-30T03:46:38.146Z,2.92
2018-12-30T03:49:10.904Z,2.95
2018-12-30T03:51:47.831Z,3.17
2018-12-30T03:54:32.048Z,3.45
2018-12-30T03:57:11.432Z,2.52
2018-12-30T03:59:48.916Z,2.25
2018-12-30T04:02:22.278Z,3.85
2018-12-30T04:04:58.380Z,3.30
2018-12-30T04:07:36.015Z,3.25
2018-12-30T04:10:10.424Z,3.05
2018-12-30T04:12:50.125Z,3.47
2018-12-30T04:15:26.481Z,3.55
2018-12-30T04:18:02.950Z,2.70
2018-12-30T04:20:40.820Z,2.62
2018-12-30T04:23:16.402Z,2.50
2018-12-30T04:25:51.294Z,2.70
2018-12-30T04:28:50.545Z,2.95
2018-12-30T04:31:30.532Z,3.12
2018-12-30T04:34:11.635Z,3.12
2018-12-30T04:36:55.295Z,2.75
2018-12-30T04:39:35.632Z,2.67
2018-12-30T04:42:13.005Z,2.85
2018-12-30T04:45:16.271Z,3.27
2018-12-30T04:47:57.069Z,3.05
2018-12-30T04:50:39.825Z,3.35
2018-12-30T04:53:16.411Z,2.92
2018-12-30T04:56:15.685Z,3.58
2018-12-30T04:59:18.116Z,3.12
2018-12-30T05:01:55.590Z,2.70
2018-12-30T05:04:34.986Z,3.22
2018-12-30T05:07:14.771Z,2.95
2018-12-30T05:09:55.828Z,3.20
2018-12-30T05:12:36.477Z,2.50
2018-12-30T05:15:35.122Z,2.30
2018-12-30T05:18:16.555Z,4.42
2018-12-30T05:20:52.496Z,3.00
2018-12-30T05:23:25.950Z,2.70
2018-12-30T05:26:02.539Z,2.70
2018-12-30T05:28:40.644Z,3.25
2018-12-30T05:31:16.788Z,2.40
2018-12-30T05:33:58.259Z,3.75
2018-12-30T05:36:35.357Z,3.67
2018-12-30T05:39:12.742Z,3.70
2018-12-30T05:41:57.152Z,3.40
2018-12-30T05:44:32.785Z,3.25
2018-12-30T05:47:09.050Z,2.05
2018-12-30T05:49:43.795Z,2.90
2018-12-30T05:52:21.208Z,2.58
2018-12-30T05:55:04.120Z,1.90
2018-12-30T06:01:01.440Z,3.50
2018-12-30T06:03:37.734Z,2.45
2018-12-30T06:06:19.802Z,2.42
2018-12-30T06:08:58.523Z,2.30
2018-12-30T06:11:38.032Z,2.80
2018-12-30T06:14:17.770Z,2.45
2018-12-30T06:16:55.902Z,2.70
2018-12-30T06:19:55.102Z,2.25
2018-12-30T06:22:36.358Z,2.75
2018-12-30T06:25:17.260Z,2.55
2018-12-30T06:28:00.798Z,2.95
2018-12-30T06:30:45.232Z,2.58
2018-12-30T06:33:26.916Z,2.30
2018-12-30T06:36:08.299Z,2.35
2018-12-30T06:38:45.325Z,1.87
2018-12-30T06:41:24.964Z,2.50
2018-12-30T06:44:23.758Z,1.55
2018-12-30T06:47:08.000Z,2.02
2018-12-30T06:49:49.593Z,2.75
2018-12-30T06:52:28.113Z,2.60
2018-12-30T06:58:00.732Z,2.10
2018-12-30T07:00:35.530Z,2.10
2018-12-30T07:03:10.937Z,2.10
2018-12-30T07:05:44.291Z,1.92
2018-12-30T07:08:17.857Z,2.62
2018-12-30T07:10:51.186Z,1.87
2018-12-30T07:13:26.722Z,2.37
2018-12-30T07:16:00.013Z,2.60
2018-12-30T07:18:33.867Z,2.30
2018-12-30T07:21:06.453Z,2.20
2018-12-30T07:23:39.903Z,1.98
2018-12-30T07:26:14.348Z,2.65
2018-12-30T07:28:48.123Z,2.08
2018-12-30T07:31:21.047Z,2.47
2018-12-30T07:33:54.517Z,2.15
2018-12-30T07:36:28.424Z,2.30
2018-12-30T07:39:01.927Z,3.55
2018-12-30T07:41:36.875Z,2.47
2018-12-30T07:44:11.668Z,2.75
2018-12-30T07:46:45.506Z,2.10
2018-12-30T07:49:19.314Z,2.58
2018-12-30T07:51:52.646Z,2.60
2018-12-30T07:54:25.602Z,2.35
2018-12-30T07:56:59.670Z,2.95
2018-12-30T07:59:33.426Z,2.47
2018-12-30T08:02:07.230Z,2.45
2018-12-30T08:04:40.883Z,2.90
2018-12-30T08:07:14.246Z,3.10
2018-12-30T08:09:47.317Z,3.08
2018-12-30T08:12:20.996Z,3.95
2018-12-30T08:14:54.813Z,2.10
2018-12-30T08:17:30.238Z,3.05
2018-12-30T08:20:03.354Z,3.05
2018-12-30T08:22:36.850Z,2.55
2018-12-30T08:25:10.754Z,3.45
2018-12-30T08:27:44.138Z,2.37
2018-12-30T08:30:18.150Z,2.60
2018-12-30T08:32:51.357Z,3.35
2018-12-30T08:35:24.339Z,3.17
2018-12-30T08:37:58.145Z,3.15
2018-12-30T08:40:31.231Z,3.47
2018-12-30T08:43:04.669Z,3.85
2018-12-30T08:45:37.244Z,3.62
2018-12-30T08:48:11.181Z,3.00
2018-12-30T08:50:43.901Z,3.52
2018-12-30T08:53:18.021Z,3.75
2018-12-30T08:55:51.507Z,4.05
2018-12-30T08:58:25.033Z,3.35
2018-12-30T09:00:58.742Z,3.45
2018-12-30T09:03:33.771Z,4.05
2018-12-30T09:06:07.533Z,3.20
2018-12-30T09:08:40.618Z,4.37
2018-12-30T09:11:16.233Z,3.50
2018-12-30T09:13:49.824Z,3.35
2018-12-30T09:16:23.146Z,4.10
2018-12-30T09:18:56.986Z,4.72
2018-12-30T09:21:29.698Z,4.20
2018-12-30T09:24:05.237Z,5.85
2018-12-30T09:26:39.133Z,4.50
2018-12-30T09:29:13.703Z,4.10
2018-12-30T09:31:53.929Z,4.78
2018-12-30T09:34:29.045Z,4.10
2018-12-30T09:40:25.632Z,3.90
2018-12-30T09:42:59.637Z,3.98
2018-12-30T09:45:32.693Z,4.10
2018-12-30T09:48:06.630Z,3.65
2018-12-30T09:50:40.242Z,4.00
2018-12-30T09:53:14.047Z,4.30
2018-12-30T09:55:47.333Z,4.00
2018-12-30T09:58:21.093Z,4.70
2018-12-30T10:00:56.302Z,3.90
2018-12-30T10:03:30.366Z,5.00
2018-12-30T10:06:03.364Z,5.92
2018-12-30T10:08:37.163Z,3.60
2018-12-30T10:11:10.493Z,4.20
2018-12-30T10:13:43.254Z,4.05
2018-12-30T10:16:16.678Z,3.65
2018-12-30T10:18:50.344Z,3.55
2018-12-30T10:21:24.062Z,3.75
2018-12-30T10:23:57.989Z,3.08
2018-12-30T10:26:33.514Z,3.10
2018-12-30T10:29:07.611Z,3.50
2018-12-30T10:31:45.011Z,3.95
2018-12-30T10:34:19.167Z,4.25
2018-12-30T10:36:52.751Z,3.52
2018-12-30T10:39:25.865Z,3.70
2018-12-30T10:41:59.861Z,3.37
2018-12-30T10:44:33.775Z,3.27
2018-12-30T10:47:06.955Z,3.25
2018-12-30T10:49:40.663Z,3.80
2018-12-30T10:52:15.420Z,2.83
2018-12-30T10:54:50.178Z,4.05
2018-12-30T10:57:23.717Z,2.50
2018-12-30T10:59:59.228Z,3.27
2018-12-30T11:02:33.795Z,3.05
2018-12-30T11:05:06.818Z,3.65
2018-12-30T11:07:44.445Z,2.95
2018-12-30T11:10:20.455Z,3.35
2018-12-30T11:12:55.472Z,4.25
2018-12-30T11:15:31.441Z,5.95
2018-12-30T11:18:04.682Z,4.03
2018-12-30T11:20:38.774Z,3.60
2018-12-30T11:23:12.609Z,3.62
2018-12-30T11:25:48.906Z,3.77
2018-12-30T11:28:24.590Z,3.15
2018-12-30T11:30:58.150Z,4.28
2018-12-30T11:33:31.146Z,4.30
2018-12-30T11:36:03.926Z,3.70
2018-12-30T11:38:36.930Z,2.92
2018-12-30T11:41:10.429Z,3.22
2018-12-30T11:43:43.910Z,3.75
2018-12-30T11:46:17.402Z,3.05
2018-12-30T11:48:50.766Z,3.52
2018-12-30T11:51:24.282Z,3.35
2018-12-30T11:53:57.420Z,3.42
2018-12-30T11:56:30.658Z,3.35
2018-12-30T11:59:04.125Z,3.50
2018-12-30T12:01:37.261Z,3.42
2018-12-30T12:04:13.544Z,2.90
2018-12-30T12:06:46.960Z,4.25
2018-12-30T12:09:19.963Z,6.25
2018-12-30T12:11:53.695Z,4.80
2018-12-30T12:14:27.172Z,2.95
2018-12-30T12:17:00.663Z,3.50
2018-12-30T12:19:33.834Z,3.25
2018-12-30T12:22:09.369Z,3.22
2018-12-30T12:24:42.976Z,3.20
2018-12-30T12:27:16.407Z,3.52
2018-12-30T12:29:49.581Z,3.60
2018-12-30T12:32:23.491Z,2.75
2018-12-30T12:34:57.423Z,2.87
2018-12-30T12:37:33.056Z,2.55
2018-12-30T12:40:06.576Z,2.40
2018-12-30T12:42:40.479Z,2.10
2018-12-30T12:45:13.753Z,2.95
2018-12-30T12:47:46.986Z,2.87
2018-12-30T12:50:20.730Z,3.05
2018-12-30T12:52:53.563Z,2.40
2018-12-30T12:55:26.235Z,2.60
2018-12-30T12:57:59.278Z,2.55
2018-12-30T13:00:32.839Z,2.47
2018-12-30T13:03:05.979Z,2.27
2018-12-30T13:05:39.033Z,2.30
2018-12-30T13:08:12.638Z,1.60
2018-12-30T13:10:48.543Z,2.60
2018-12-30T13:13:21.784Z,2.45
2018-12-30T13:16:03.358Z,2.08
2018-12-30T13:18:32.224Z,3.90
2018-12-30T13:21:04.760Z,2.35
2018-12-30T13:23:37.920Z,2.20
2018-12-30T13:26:11.335Z,2.83
2018-12-30T13:28:44.731Z,1.90
2018-12-30T13:31:18.066Z,2.22
2018-12-30T13:33:51.978Z,2.87
2018-12-30T13:36:25.495Z,2.30
2018-12-30T13:38:58.886Z,3.22
2018-12-30T13:41:31.987Z,2.55
2018-12-30T13:44:05.489Z,3.27
2018-12-30T13:46:39.080Z,2.83
2018-12-30T13:49:12.150Z,2.65
2018-12-30T13:51:55.060Z,2.80
2018-12-30T13:54:37.674Z,3.27
2018-12-30T13:57:15.435Z,2.85
2018-12-30T13:59:48.530Z,2.20
2018-12-30T14:02:27.938Z,3.40
2018-12-30T14:05:09.724Z,3.62
2018-12-30T14:07:52.760Z,2.45
2018-12-30T14:10:29.941Z,2.72
2018-12-30T14:13:19.374Z,2.77
2018-12-30T14:16:00.907Z,3.30
2018-12-30T14:18:42.680Z,4.40
2018-12-30T14:21:24.332Z,4.78
2018-12-30T14:24:16.181Z,3.00
2018-12-30T14:27:14.386Z,2.55
2018-12-30T14:29:54.241Z,2.55
2018-12-30T14:32:58.997Z,3.02
2018-12-30T14:35:36.829Z,3.15
2018-12-30T14:38:32.392Z,2.40
2018-12-30T14:41:05.807Z,2.72
2018-12-30T14:43:46.107Z,2.60
2018-12-30T14:46:23.953Z,2.37
2018-12-30T14:48:58.567Z,3.00
2018-12-30T14:51:41.748Z,3.22
2018-12-30T14:54:33.124Z,2.47
2018-12-30T14:57:23.463Z,1.90
2018-12-30T14:59:58.138Z,2.87
2018-12-30T15:02:34.173Z,2.80
2018-12-30T15:05:18.037Z,3.02
2018-12-30T15:07:51.160Z,3.80
2018-12-30T15:10:26.479Z,3.37
2018-12-30T15:13:02.204Z,3.92
2018-12-30T15:15:35.320Z,3.75
2018-12-30T15:18:16.086Z,2.98
2018-12-30T15:20:55.791Z,2.25
2018-12-30T15:23:33.634Z,2.60
2018-12-30T15:26:33.142Z,2.22
2018-12-30T15:29:31.677Z,3.80
2018-12-30T15:32:09.963Z,3.05
2018-12-30T15:34:47.703Z,3.42
2018-12-30T15:37:30.223Z,4.53
2018-12-30T15:40:05.105Z,4.70
2018-12-30T15:42:39.090Z,5.83
2018-12-30T15:45:12.988Z,4.95
2018-12-30T15:47:50.569Z,4.58
2018-12-30T15:50:31.220Z,3.87
2018-12-30T15:53:12.298Z,4.58
2018-12-30T15:55:53.385Z,4.62
2018-12-30T15:58:33.469Z,5.83
2018-12-30T16:01:29.390Z,4.87
2018-12-30T16:04:10.035Z,5.05
2018-12-30T16:06:49.043Z,4.80
2018-12-30T16:09:33.099Z,4.62
2018-12-30T16:15:17.930Z,4.50
2018-12-30T16:17:59.655Z,4.92
2018-12-30T16:20:38.952Z,5.30
2018-12-30T16:23:14.712Z,6.70
2018-12-30T16:25:47.772Z,5.72
2018-12-30T16:28:23.746Z,5.30
2018-12-30T16:30:59.624Z,4.67
2018-12-30T16:33:35.615Z,4.40
2018-12-30T16:36:12.711Z,5.00
2018-12-30T16:38:49.192Z,5.60
2018-12-30T16:41:24.234Z,6.05
2018-12-30T16:44:20.244Z,4.87
2018-12-30T16:47:00.086Z,4.95
2018-12-30T16:49:46.536Z,5.45
2018-12-30T16:52:18.970Z,5.20
2018-12-30T16:54:53.748Z,5.30
2018-12-30T16:57:30.429Z,4.37
2018-12-30T17:00:11.319Z,4.75
2018-12-30T17:02:45.912Z,5.30
2018-12-30T17:05:19.504Z,5.42
2018-12-30T17:07:57.078Z,5.35
2018-12-30T17:10:44.095Z,4.95
2018-12-30T17:13:31.530Z,5.55
2018-12-30T17:16:08.480Z,6.33
2018-12-30T17:18:55.962Z,6.10
2018-12-30T17:21:35.592Z,6.55
2018-12-30T17:24:10.953Z,6.80
2018-12-30T17:26:44.171Z,4.90
2018-12-30T17:29:16.591Z,5.40
2018-12-30T17:31:50.309Z,5.55
2018-12-30T17:34:24.040Z,6.33
2018-12-30T17:36:57.390Z,5.28
2018-12-30T17:39:30.897Z,6.35
2018-12-30T17:42:04.745Z,6.10
2018-12-30T17:44:38.309Z,5.85
2018-12-30T17:47:12.605Z,7.15
2018-12-30T17:49:46.119Z,8.18
2018-12-30T17:52:18.911Z,7.35
2018-12-30T17:54:54.081Z,8.10
2018-12-30T17:57:27.757Z,9.48
2018-12-30T18:00:01.083Z,9.23
2018-12-30T18:02:34.646Z,8.95
2018-12-30T18:05:07.538Z,10.63
2018-12-30T18:07:41.491Z,10.40
2018-12-30T18:10:14.657Z,9.10
2018-12-30T18:12:48.242Z,9.50
2018-12-30T18:15:22.831Z,9.15
2018-12-30T18:18:20.768Z,8.65
2018-12-30T18:20:56.081Z,9.65
2018-12-30T18:23:31.047Z,9.20
2018-12-30T18:26:07.389Z,9.83
2018-12-30T18:28:45.960Z,9.60
2018-12-30T18:31:20.477Z,10.58
2018-12-30T18:33:56.343Z,10.55
2018-12-30T18:36:48.590Z,10.35
2018-12-30T18:39:38.273Z,12.58
2018-12-30T18:42:17.926Z,13.18
2018-12-30T18:45:01.844Z,12.50
2018-12-30T18:47:42.555Z,12.95
2018-12-30T18:50:24.241Z,12.03
2018-12-30T18:53:04.646Z,13.93
2018-12-30T18:56:06.907Z,15.80
2018-12-30T18:58:52.413Z,14.10
2018-12-30T19:01:34.251Z,15.00
2018-12-30T19:04:14.534Z,14.73
2018-12-30T19:06:51.390Z,17.07
2018-12-30T19:09:24.382Z,18.85
2018-12-30T19:12:06.672Z,17.60
2018-12-30T19:14:41.946Z,18.37
2018-12-30T19:17:15.529Z,19.90
2018-12-30T19:19:49.019Z,19.23
2018-12-30T19:22:22.709Z,20.65
2018-12-30T19:24:55.826Z,21.20
2018-12-30T19:27:31.989Z,21.40
2018-12-30T19:30:09.528Z,23.42
2018-12-30T19:32:43.537Z,23.30
2018-12-30T19:35:16.986Z,25.45
2018-12-30T19:37:51.075Z,26.27
2018-12-30T19:40:25.489Z,27.87
2018-12-30T19:42:58.944Z,26.95
2018-12-30T19:45:35.170Z,29.15
2018-12-30T19:48:13.421Z,30.85
2018-12-30T19:50:50.753Z,30.80
2018-12-30T19:53:26.471Z,30.57
2018-12-30T19:56:26.777Z,32.58
2018-12-30T19:59:07.912Z,34.58
2018-12-30T20:01:52.466Z,33.92
2018-12-30T20:04:40.429Z,35.58
2018-12-30T20:07:28.030Z,35.58
2018-12-30T20:10:08.306Z,31.57
2018-12-30T20:12:53.808Z,33.35
2018-12-30T20:15:29.722Z,34.58
2018-12-30T20:18:13.122Z,34.85
2018-12-30T20:21:13.021Z,35.13
2018-12-30T20:23:54.813Z,34.00
2018-12-30T20:29:35.203Z,32.63
2018-12-30T20:32:21.248Z,33.35
2018-12-30T20:35:03.411Z,28.65
2018-12-30T20:37:46.469Z,29.60
2018-12-30T20:40:35.938Z,32.67
2018-12-30T20:43:16.215Z,30.08
2018-12-30T20:45:54.104Z,29.15
2018-12-30T20:48:36.427Z,28.02
2018-12-30T20:51:16.561Z,28.83
2018-12-30T20:53:55.133Z,30.80
2018-12-30T20:56:38.380Z,30.57
2018-12-30T21:02:19.586Z,28.85
2018-12-30T21:08:18.377Z,31.82
2018-12-30T21:10:54.263Z,33.05
2018-12-30T21:13:53.837Z,30.27
2018-12-30T21:19:55.736Z,30.95
2018-12-30T21:22:36.859Z,28.90
2018-12-30T21:25:17.760Z,32.03
2018-12-30T21:28:15.743Z,27.62
2018-12-30T21:31:05.490Z,30.57
2018-12-30T21:33:50.154Z,30.40
